Time;durP1;ratioP1;P1;durP2;ratioP2;P2;SDS_P1;SDS_P2;PMS_P1;PMS_P2;Temp;Humidity;BMP_temperature;BMP_pressure;BME280_temperature;BME280_humidity;BME280_pressure;Samples;Min_cycle;Max_cycle;Signal;HPM_P1;HPM_P2
2022/04/20 00:01:11;;;;;;;4.90;3.97;;;13.40;44.50;;;;;;5113382;28;20998;-89
2022/04/20 00:03:38;;;;;;;3.40;3.10;;;13.50;44.60;;;;;;5114163;28;20178;-87
2022/04/20 00:06:08;;;;;;;4.63;3.95;;;13.50;44.40;;;;;;5099368;28;20532;-87
2022/04/20 00:08:48;;;;;;;4.95;4.00;;;13.40;44.40;;;;;;5099309;28;20171;-86
2022/04/20 00:11:14;;;;;;;4.85;4.05;;;13.30;44.70;;;;;;5099999;28;20198;-88
2022/04/20 00:13:39;;;;;;;6.17;3.70;;;13.30;44.80;;;;;;5100854;28;20185;-87
2022/04/20 00:16:05;;;;;;;6.00;4.63;;;13.30;44.80;;;;;;5115864;28;20429;-87
2022/04/20 00:18:31;;;;;;;6.20;4.07;;;13.30;44.90;;;;;;5126513;28;20186;-86
2022/04/20 00:20:57;;;;;;;8.40;4.30;;;13.30;44.90;;;;;;5143113;27;20263;-86
2022/04/20 00:23:22;;;;;;;4.40;3.77;;;13.20;45.00;;;;;;5092219;28;20203;-88
2022/04/20 00:25:48;;;;;;;6.13;4.60;;;13.20;45.10;;;;;;5127504;28;20186;-87
2022/04/20 00:28:14;;;;;;;5.33;4.10;;;13.20;45.10;;;;;;5143439;27;20624;-86
2022/04/20 00:30:39;;;;;;;9.70;4.40;;;13.20;45.10;;;;;;5110302;28;20230;-87
2022/04/20 00:33:05;;;;;;;8.60;4.30;;;13.20;45.10;;;;;;5124710;28;20179;-87
2022/04/20 00:35:31;;;;;;;4.87;4.33;;;13.10;45.10;;;;;;5132718;27;20555;-86
2022/04/20 00:37:56;;;;;;;6.70;4.37;;;13.10;45.20;;;;;;5132447;27;20182;-86
2022/04/20 00:40:26;;;;;;;4.17;3.40;;;13.10;45.20;;;;;;5098387;28;20203;-85
2022/04/20 00:42:53;;;;;;;4.45;3.90;;;13.10;45.30;;;;;;5117356;28;20412;-89
2022/04/20 00:45:19;;;;;;;4.55;4.10;;;13.00;45.30;;;;;;5100685;28;20177;-88
2022/04/20 00:47:45;;;;;;;7.57;3.65;;;13.00;45.20;;;;;;5100453;28;20673;-87
2022/04/20 00:50:12;;;;;;;7.73;4.57;;;13.00;45.50;;;;;;5100658;28;20198;-88
2022/04/20 00:52:38;;;;;;;7.85;4.40;;;12.90;45.50;;;;;;5111601;27;20642;-87
2022/04/20 00:55:06;;;;;;;5.10;4.00;;;12.90;45.70;;;;;;5121279;27;20235;-87
2022/04/20 00:57:32;;;;;;;5.55;4.38;;;12.90;45.80;;;;;;5103901;27;20416;-87
2022/04/20 01:00:01;;;;;;;5.75;4.05;;;12.90;45.70;;;;;;5118370;27;20195;-85
2022/04/20 01:02:28;;;;;;;5.72;4.00;;;12.90;45.70;;;;;;5118598;28;20215;-88
2022/04/20 01:04:54;;;;;;;5.90;4.10;;;12.80;45.80;;;;;;5122964;28;20171;-86
2022/04/20 01:07:21;;;;;;;8.77;4.80;;;12.70;46.00;;;;;;5100622;28;20618;-87
2022/04/20 01:09:46;;;;;;;5.25;3.85;;;12.80;46.00;;;;;;5102063;28;20890;-86
2022/04/20 01:12:13;;;;;;;6.43;3.73;;;12.70;46.30;;;;;;5120656;28;20244;-86
2022/04/20 01:14:41;;;;;;;6.90;4.28;;;12.70;46.50;;;;;;5119064;28;20202;-88
2022/04/20 01:17:06;;;;;;;6.07;4.10;;;12.60;46.50;;;;;;5098194;28;20172;-86
2022/04/20 01:19:39;;;;;;;4.63;4.00;;;12.60;46.50;;;;;;5104408;28;20191;-85
2022/04/20 01:22:11;;;;;;;6.80;4.18;;;12.60;46.70;;;;;;5101220;28;20467;-86
2022/04/20 01:24:37;;;;;;;6.00;3.95;;;12.50;46.90;;;;;;5099882;28;20650;-87
2022/04/20 01:27:06;;;;;;;7.13;4.65;;;12.40;47.00;;;;;;5101130;28;20171;-86
2022/04/20 01:29:32;;;;;;;5.45;4.35;;;12.40;47.10;;;;;;5099916;28;20509;-88
2022/04/20 01:31:58;;;;;;;4.18;3.50;;;12.40;47.20;;;;;;5125852;28;20199;-86
2022/04/20 01:34:24;;;;;;;5.00;3.80;;;12.40;47.20;;;;;;5120638;27;20186;-83
2022/04/20 01:36:49;;;;;;;5.47;4.40;;;12.40;47.30;;;;;;5138455;27;20420;-84
2022/04/20 01:39:15;;;;;;;5.67;4.20;;;12.20;47.50;;;;;;5121100;28;20166;-84
2022/04/20 01:41:42;;;;;;;4.57;3.92;;;12.20;47.70;;;;;;5103899;28;20489;-86
2022/04/20 01:44:08;;;;;;;7.18;4.45;;;12.20;47.60;;;;;;5119832;28;20188;-87
2022/04/20 01:46:34;;;;;;;6.78;4.20;;;12.20;47.50;;;;;;5120811;28;20209;-87
2022/04/20 01:49:10;;;;;;;5.17;4.07;;;12.20;47.70;;;;;;5121139;28;20171;-85
2022/04/20 01:51:50;;;;;;;5.82;4.65;;;12.30;47.70;;;;;;5120462;28;20193;-86
2022/04/20 01:54:18;;;;;;;5.18;4.65;;;12.10;47.80;;;;;;5119120;28;20179;-87
2022/04/20 01:56:46;;;;;;;5.65;4.15;;;12.10;48.60;;;;;;5104427;28;20179;-88
2022/04/20 01:59:12;;;;;;;5.90;4.57;;;12.10;47.90;;;;;;5100378;28;20252;-88
2022/04/20 02:04:22;;;;;;;6.10;4.15;;;12.20;47.60;;;;;;5119761;28;20824;-86
2022/04/20 02:06:48;;;;;;;8.23;4.75;;;12.00;47.60;;;;;;5113546;28;20198;-87
2022/04/20 02:09:15;;;;;;;4.33;3.73;;;12.10;47.70;;;;;;5091337;28;20182;-88
2022/04/20 02:11:40;;;;;;;5.32;4.00;;;12.00;47.60;;;;;;5098292;28;20277;-85
2022/04/20 02:14:06;;;;;;;5.00;3.90;;;12.00;47.60;;;;;;5098218;28;20202;-88
2022/04/20 02:16:32;;;;;;;7.43;4.87;;;12.00;47.90;;;;;;5097577;28;20167;-89
2022/04/20 02:18:58;;;;;;;7.43;4.80;;;11.90;47.70;;;;;;5097792;28;20939;-87
2022/04/20 02:21:23;;;;;;;6.70;5.57;;;11.90;47.80;;;;;;5097636;28;20513;-87
2022/04/20 02:23:49;;;;;;;7.50;4.97;;;12.00;47.70;;;;;;5115943;28;20236;-88
2022/04/20 02:26:15;;;;;;;8.83;4.23;;;11.90;47.80;;;;;;5099759;28;20459;-87
2022/04/20 02:28:41;;;;;;;6.80;4.70;;;11.90;47.70;;;;;;5100006;28;20177;-86
2022/04/20 02:31:06;;;;;;;6.73;5.20;;;11.90;47.70;;;;;;5119899;28;20466;-88
2022/04/20 02:33:32;;;;;;;6.80;4.37;;;11.90;47.50;;;;;;5102115;28;20183;-86
2022/04/20 02:35:58;;;;;;;6.83;4.10;;;11.90;47.70;;;;;;5122388;27;20277;-88
2022/04/20 02:38:24;;;;;;;8.40;4.40;;;11.90;47.80;;;;;;5118694;27;20182;-89
2022/04/20 02:40:51;;;;;;;7.33;4.80;;;11.80;47.70;;;;;;5118045;27;20221;-87
2022/04/20 02:43:17;;;;;;;4.85;4.15;;;11.90;47.80;;;;;;5103865;28;20421;-87
2022/04/20 02:45:43;;;;;;;5.83;3.90;;;11.90;47.80;;;;;;5102338;28;20313;-87
2022/04/20 02:48:09;;;;;;;5.90;3.87;;;11.80;47.70;;;;;;5108386;28;20894;-88
2022/04/20 02:50:35;;;;;;;7.20;4.85;;;11.70;48.00;;;;;;5108542;28;20967;-86
2022/04/20 02:53:01;;;;;;;7.40;3.80;;;11.80;48.00;;;;;;5109680;28;20258;-88
2022/04/20 02:55:27;;;;;;;8.67;4.60;;;11.80;47.90;;;;;;5126007;28;20164;-88
2022/04/20 02:57:52;;;;;;;5.90;4.33;;;11.70;48.10;;;;;;5127885;28;20568;-86
2022/04/20 03:00:18;;;;;;;9.10;4.60;;;11.80;47.90;;;;;;5109521;28;20916;-86
2022/04/20 03:02:44;;;;;;;8.10;4.83;;;11.80;47.90;;;;;;5100069;28;20220;-88
2022/04/20 03:05:09;;;;;;;5.03;4.10;;;11.70;48.00;;;;;;5119207;28;20265;-86
2022/04/20 03:07:35;;;;;;;4.67;4.17;;;11.70;48.00;;;;;;5104278;28;20175;-87
2022/04/20 03:10:03;;;;;;;6.53;4.57;;;11.60;48.20;;;;;;5102154;28;20677;-85
2022/04/20 03:12:29;;;;;;;5.15;3.88;;;11.60;48.20;;;;;;5099813;28;20225;-88
2022/04/20 03:14:55;;;;;;;4.80;4.03;;;11.50;48.50;;;;;;5104915;28;20177;-84
2022/04/20 03:17:21;;;;;;;5.23;3.60;;;11.50;48.60;;;;;;5116970;28;20182;-84
2022/04/20 03:19:47;;;;;;;5.10;3.95;;;11.40;48.70;;;;;;5116934;28;20175;-85
2022/04/20 03:22:14;;;;;;;9.02;5.40;;;11.50;48.80;;;;;;5135444;28;20256;-87
2022/04/20 03:24:39;;;;;;;5.82;4.50;;;11.40;48.70;;;;;;5135635;27;20179;-85
2022/04/20 03:27:06;;;;;;;6.57;4.40;;;11.40;48.90;;;;;;5118418;28;20205;-86
2022/04/20 03:29:31;;;;;;;4.85;4.32;;;11.40;48.70;;;;;;5118986;28;20498;-87
2022/04/20 03:31:57;;;;;;;7.00;4.50;;;11.40;49.00;;;;;;5135372;28;20199;-87
2022/04/20 03:34:24;;;;;;;5.03;3.63;;;11.40;48.90;;;;;;5118582;28;20416;-87
2022/04/20 03:36:49;;;;;;;4.80;3.92;;;11.40;49.10;;;;;;5117459;28;20195;-85
2022/04/20 03:39:16;;;;;;;8.40;4.40;;;11.40;48.90;;;;;;5132195;28;20225;-88
2022/04/20 03:41:42;;;;;;;5.00;4.20;;;11.40;48.90;;;;;;5105358;28;20218;-87
2022/04/20 03:44:08;;;;;;;5.90;4.10;;;11.40;49.00;;;;;;5106548;28;20179;-87
2022/04/20 03:46:34;;;;;;;5.40;4.18;;;11.30;49.00;;;;;;5116854;28;20186;-87
2022/04/20 03:49:00;;;;;;;7.93;4.30;;;11.30;49.10;;;;;;5105429;28;20671;-87
2022/04/20 03:51:26;;;;;;;5.37;4.37;;;11.30;49.20;;;;;;5120918;28;20230;-88
2022/04/20 03:53:52;;;;;;;5.43;4.90;;;11.30;49.30;;;;;;5105446;28;20251;-88
2022/04/20 03:56:17;;;;;;;5.87;4.30;;;11.20;49.20;;;;;;5110073;28;20222;-87
2022/04/20 03:58:43;;;;;;;10.13;4.10;;;11.10;49.50;;;;;;5139418;27;20616;-87
2022/04/20 04:01:09;;;;;;;6.30;4.47;;;11.20;49.50;;;;;;5113225;27;20211;-86
2022/04/20 04:03:35;;;;;;;5.30;4.13;;;11.20;49.50;;;;;;5125174;27;20194;-87
2022/04/20 04:06:00;;;;;;;5.20;3.88;;;11.10;49.60;;;;;;5122380;27;20170;-87
2022/04/20 04:08:26;;;;;;;4.90;4.17;;;11.10;49.70;;;;;;5122089;27;20179;-89
2022/04/20 04:10:52;;;;;;;6.10;4.50;;;11.00;49.90;;;;;;5116246;28;20229;-87
2022/04/20 04:13:18;;;;;;;5.60;3.83;;;11.00;50.00;;;;;;5102419;28;20281;-89
2022/04/20 04:15:44;;;;;;;5.50;3.95;;;11.10;49.90;;;;;;5101911;28;20653;-89
2022/04/20 04:18:10;;;;;;;5.70;3.90;;;11.00;50.10;;;;;;5143712;27;20179;-83
2022/04/20 04:20:35;;;;;;;7.53;4.13;;;11.00;50.00;;;;;;5116383;28;20437;-85
2022/04/20 04:23:02;;;;;;;6.93;4.70;;;11.10;50.00;;;;;;5103749;28;20183;-88
2022/04/20 04:25:29;;;;;;;9.35;4.70;;;10.90;50.10;;;;;;5099149;28;20477;-86
2022/04/20 04:27:55;;;;;;;4.97;3.90;;;10.80;50.20;;;;;;5098357;28;20183;-88
2022/04/20 04:30:21;;;;;;;6.30;4.70;;;10.80;50.60;;;;;;5109116;28;20399;-88
2022/04/20 04:32:47;;;;;;;7.97;4.70;;;10.80;50.50;;;;;;5099231;28;20178;-88
2022/04/20 04:35:14;;;;;;;4.82;3.80;;;10.90;50.50;;;;;;5099204;28;20175;-87
2022/04/20 04:37:40;;;;;;;6.05;5.05;;;10.80;51.30;;;;;;5099602;28;20209;-86
2022/04/20 04:40:06;;;;;;;6.67;4.83;;;10.70;50.80;;;;;;5099714;28;20215;-88
2022/04/20 04:42:32;;;;;;;6.60;4.10;;;10.80;50.80;;;;;;5100066;28;20261;-88
2022/04/20 04:48:36;;;;;;;6.20;4.80;;;10.70;50.70;;;;;;5100729;28;20577;-87
2022/04/20 04:50:29;;;;;;;4.40;3.70;;;10.80;50.60;;;;;;5119861;28;20235;-87
2022/04/20 04:52:54;;;;;;;9.33;4.30;;;10.80;50.70;;;;;;5099176;28;20171;-87
2022/04/20 04:55:20;;;;;;;6.93;4.37;;;10.80;50.50;;;;;;5099660;28;20435;-84
2022/04/20 04:57:46;;;;;;;7.10;4.50;;;10.80;50.50;;;;;;5098811;28;20553;-87
2022/04/20 05:00:13;;;;;;;8.63;5.03;;;10.80;51.40;;;;;;5132461;27;20191;-87
2022/04/20 05:02:39;;;;;;;10.88;5.85;;;10.80;50.40;;;;;;5117700;28;20195;-88
2022/04/20 05:05:08;;;;;;;13.60;5.20;;;10.80;50.40;;;;;;5100002;28;20562;-88
2022/04/20 05:07:34;;;;;;;14.68;4.95;;;10.90;50.10;;;;;;5101390;28;20663;-87
2022/04/20 05:10:00;;;;;;;6.40;4.80;;;10.80;50.00;;;;;;5101056;28;20198;-86
2022/04/20 05:12:26;;;;;;;5.70;4.13;;;10.90;50.00;;;;;;5100465;28;20230;-86
2022/04/20 05:14:51;;;;;;;7.10;4.83;;;11.00;50.00;;;;;;5100089;28;20232;-86
2022/04/20 05:17:17;;;;;;;7.47;5.13;;;11.00;49.70;;;;;;5119800;28;20466;-86
2022/04/20 05:19:43;;;;;;;7.50;4.60;;;11.10;49.60;;;;;;5109500;28;20179;-87
2022/04/20 05:22:08;;;;;;;6.80;5.17;;;11.00;49.40;;;;;;5094582;27;20452;-88
2022/04/20 05:24:35;;;;;;;7.63;4.73;;;11.00;49.40;;;;;;5111310;28;20179;-88
2022/04/20 05:27:02;;;;;;;7.72;4.55;;;11.20;49.40;;;;;;5128181;28;20171;-86
2022/04/20 05:29:28;;;;;;;5.00;4.45;;;11.60;48.50;;;;;;5112668;28;20201;-85
2022/04/20 05:31:55;;;;;;;8.37;4.90;;;12.00;47.20;;;;;;5113032;28;20202;-86
2022/04/20 05:34:23;;;;;;;7.13;4.78;;;12.60;45.90;;;;;;5105306;28;20185;-89
2022/04/20 05:42:18;;;;;;;5.93;5.05;;;14.10;41.30;;;;;;5124887;27;20866;-89
2022/04/20 05:44:47;;;;;;;9.10;5.68;;;15.00;39.20;;;;;;5109113;28;20261;-88
2022/04/20 05:47:13;;;;;;;7.32;4.78;;;15.20;38.40;;;;;;5104466;28;20242;-87
2022/04/20 05:49:40;;;;;;;6.10;5.40;;;15.60;37.60;;;;;;5133461;27;20182;-84
2022/04/20 05:52:06;;;;;;;6.18;5.50;;;15.10;37.60;;;;;;5111561;28;20195;-87
2022/04/20 05:54:32;;;;;;;8.82;4.80;;;14.80;38.00;;;;;;5098333;28;20185;-88
2022/04/20 05:56:58;;;;;;;12.02;5.65;;;14.40;38.70;;;;;;5098592;28;20213;-89
2022/04/20 05:59:25;;;;;;;7.03;4.73;;;13.80;39.70;;;;;;5098894;28;20175;-88
2022/04/20 06:01:50;;;;;;;7.03;5.38;;;13.50;40.90;;;;;;5096673;28;20207;-90
2022/04/20 06:04:16;;;;;;;6.87;5.30;;;13.20;41.60;;;;;;5097878;28;20198;-88
2022/04/20 06:06:42;;;;;;;9.23;5.37;;;13.10;42.30;;;;;;5116361;28;20175;-89
2022/04/20 06:09:08;;;;;;;8.63;5.00;;;13.00;43.20;;;;;;5118032;28;20182;-88
2022/04/20 06:11:34;;;;;;;8.40;4.53;;;13.00;42.80;;;;;;5097818;28;20456;-89
2022/04/20 06:14:00;;;;;;;7.30;4.90;;;13.10;43.00;;;;;;5097286;28;20190;-88
2022/04/20 06:16:26;;;;;;;7.40;5.90;;;13.20;42.60;;;;;;5097645;28;20179;-88
2022/04/20 06:18:52;;;;;;;5.97;4.57;;;13.30;42.40;;;;;;5097866;28;20184;-88
2022/04/20 06:21:18;;;;;;;7.70;6.20;;;13.40;42.20;;;;;;5132131;27;20506;-87
2022/04/20 06:23:44;;;;;;;8.30;4.70;;;13.50;42.10;;;;;;5132189;27;20199;-88
2022/04/20 06:26:10;;;;;;;7.27;4.90;;;13.70;41.90;;;;;;5132096;27;20654;-87
2022/04/20 06:28:36;;;;;;;10.52;4.60;;;13.70;41.40;;;;;;5132136;27;20189;-87
2022/04/20 06:31:02;;;;;;;5.77;4.37;;;13.50;41.40;;;;;;5097823;28;20285;-87
2022/04/20 06:33:28;;;;;;;6.27;4.20;;;13.60;41.60;;;;;;5099059;28;20198;-88
2022/04/20 06:35:53;;;;;;;11.02;4.80;;;13.90;41.10;;;;;;5098851;28;20437;-88
2022/04/20 06:38:22;;;;;;;8.77;4.97;;;14.10;40.50;;;;;;5098937;28;20183;-90
2022/04/20 06:40:48;;;;;;;7.93;4.95;;;14.30;40.10;;;;;;5097979;28;20215;-89
2022/04/20 06:43:14;;;;;;;10.57;5.83;;;14.30;40.00;;;;;;5098729;28;20666;-90
2022/04/20 06:45:41;;;;;;;10.18;5.13;;;14.10;40.90;;;;;;5099105;28;20483;-89
2022/04/20 06:48:07;;;;;;;6.50;5.13;;;13.90;40.30;;;;;;5098331;28;20582;-87
2022/04/20 06:50:32;;;;;;;7.03;5.37;;;13.70;41.10;;;;;;5098681;28;20198;-89
2022/04/20 06:58:32;;;;;;;8.60;5.78;;;14.10;40.40;;;;;;5123860;28;20221;-86
2022/04/20 07:00:59;;;;;;;6.85;5.70;;;14.10;40.20;;;;;;5118045;28;20201;-88
2022/04/20 07:03:25;;;;;;;11.65;5.35;;;14.20;40.10;;;;;;5117881;28;20186;-87
2022/04/20 07:05:50;;;;;;;7.97;5.73;;;14.20;39.90;;;;;;5099389;28;20194;-88
2022/04/20 07:08:16;;;;;;;7.10;5.40;;;14.10;40.90;;;;;;5100873;28;20178;-88
2022/04/20 07:10:43;;;;;;;9.47;5.57;;;14.00;40.30;;;;;;5102742;28;20210;-90
2022/04/20 07:13:09;;;;;;;8.55;5.50;;;14.00;40.30;;;;;;5102197;28;20425;-86
2022/04/20 07:15:35;;;;;;;9.07;5.60;;;13.80;40.70;;;;;;5145545;27;20253;-86
2022/04/20 07:18:01;;;;;;;7.93;4.80;;;13.90;41.10;;;;;;5087218;28;20808;-88
2022/04/20 07:20:26;;;;;;;7.40;4.43;;;14.00;40.90;;;;;;5083726;28;20487;-88
2022/04/20 07:22:54;;;;;;;12.40;5.43;;;14.00;40.70;;;;;;5083311;28;20414;-88
2022/04/20 07:25:20;;;;;;;10.15;5.75;;;14.00;40.70;;;;;;5116215;28;20179;-87
2022/04/20 07:27:47;;;;;;;9.38;5.60;;;14.00;40.80;;;;;;5065777;28;20186;-85
2022/04/20 07:30:13;;;;;;;9.13;5.63;;;14.10;40.50;;;;;;5121565;28;20207;-90
2022/04/20 07:32:38;;;;;;;9.85;5.07;;;14.10;40.30;;;;;;5083620;28;20578;-87
2022/04/20 07:35:05;;;;;;;7.20;4.90;;;14.00;40.30;;;;;;5116822;28;20171;-88
2022/04/20 07:37:31;;;;;;;6.95;5.40;;;14.00;40.30;;;;;;5083623;28;20180;-88
2022/04/20 07:39:57;;;;;;;9.02;5.82;;;13.90;40.50;;;;;;5084522;28;20276;-89
2022/04/20 07:42:23;;;;;;;6.70;5.53;;;14.10;40.40;;;;;;5102398;28;20219;-86
2022/04/20 07:44:49;;;;;;;9.57;5.30;;;14.10;40.40;;;;;;5100118;28;20413;-89
2022/04/20 07:47:15;;;;;;;10.10;5.70;;;13.90;40.50;;;;;;5113722;28;20176;-89
2022/04/20 07:52:25;;;;;;;8.25;4.95;;;14.40;40.10;;;;;;5065803;28;20457;-87
2022/04/20 07:54:51;;;;;;;7.50;5.23;;;14.50;39.60;;;;;;5067512;28;20181;-87
2022/04/20 07:57:17;;;;;;;6.87;6.17;;;14.50;39.60;;;;;;5068993;28;20185;-86
2022/04/20 07:59:43;;;;;;;7.17;5.33;;;14.40;39.50;;;;;;5060171;28;20277;-87
2022/04/20 08:02:09;;;;;;;8.07;6.00;;;14.60;39.30;;;;;;5074257;28;20197;-86
2022/04/20 08:04:35;;;;;;;7.30;5.20;;;14.60;39.20;;;;;;5074127;28;20188;-87
2022/04/20 08:07:02;;;;;;;9.73;5.97;;;14.50;39.10;;;;;;5058649;28;20166;-87
2022/04/20 08:09:27;;;;;;;11.02;5.88;;;14.60;39.20;;;;;;5075633;28;20246;-86
2022/04/20 08:11:53;;;;;;;8.00;5.40;;;14.70;39.20;;;;;;5075268;28;20668;-86
2022/04/20 08:14:22;;;;;;;7.00;5.70;;;14.70;38.90;;;;;;5075836;28;20181;-86
2022/04/20 08:16:48;;;;;;;10.63;6.25;;;14.80;38.50;;;;;;5079909;28;20241;-86
2022/04/20 08:19:17;;;;;;;6.90;5.50;;;14.80;38.80;;;;;;5085523;28;20196;-86
2022/04/20 08:21:43;;;;;;;8.10;5.32;;;14.70;39.10;;;;;;5078871;28;20209;-85
2022/04/20 08:24:08;;;;;;;10.73;5.70;;;14.90;38.80;;;;;;5077136;28;20307;-85
2022/04/20 08:26:34;;;;;;;8.53;5.37;;;14.70;38.60;;;;;;5075062;28;20204;-86
2022/04/20 08:29:00;;;;;;;8.57;6.33;;;15.10;38.60;;;;;;5076103;28;20649;-85
2022/04/20 08:31:25;;;;;;;6.10;4.70;;;15.30;37.80;;;;;;5074927;28;20201;-85
2022/04/20 08:33:51;;;;;;;11.50;5.93;;;15.30;37.60;;;;;;5071009;28;20242;-85
2022/04/20 08:36:17;;;;;;;10.23;5.20;;;15.40;37.40;;;;;;5041882;28;20185;-85
2022/04/20 08:38:44;;;;;;;8.30;5.70;;;15.60;37.00;;;;;;5059674;28;20188;-86
2022/04/20 08:41:16;;;;;;;6.40;5.40;;;15.60;36.30;;;;;;5059879;28;20220;-85
2022/04/20 08:43:41;;;;;;;7.72;5.40;;;15.50;36.40;;;;;;5061758;28;20177;-86
2022/04/20 08:46:11;;;;;;;6.73;5.50;;;15.60;36.60;;;;;;5067770;28;20554;-85
2022/04/20 08:48:37;;;;;;;10.85;6.20;;;15.50;36.60;;;;;;5068467;28;20177;-88
2022/04/20 08:51:04;;;;;;;7.38;6.40;;;15.80;36.50;;;;;;5068474;28;20667;-87
2022/04/20 08:53:30;;;;;;;7.85;5.75;;;15.70;36.30;;;;;;5065600;28;20177;-86
2022/04/20 08:58:47;;;;;;;8.95;5.60;;;16.20;35.90;;;;;;5061435;28;20312;-85
2022/04/20 09:01:14;;;;;;;8.00;5.72;;;16.40;35.20;;;;;;5063925;28;20208;-84
2022/04/20 09:03:40;;;;;;;6.50;5.05;;;16.30;35.10;;;;;;5066664;28;20177;-88
2022/04/20 09:06:07;;;;;;;7.50;5.25;;;16.60;34.30;;;;;;5048513;28;20196;-87
2022/04/20 09:08:34;;;;;;;10.60;5.20;;;16.50;34.10;;;;;;5048115;28;20203;-87
2022/04/20 09:11:00;;;;;;;8.85;5.30;;;16.40;34.20;;;;;;5061613;28;20205;-86
2022/04/20 09:13:41;;;;;;;8.98;6.00;;;16.40;34.50;;;;;;5066012;28;20188;-86
2022/04/20 09:16:16;;;;;;;8.32;5.72;;;16.30;34.60;;;;;;5065568;28;20177;-85
2022/04/20 09:18:42;;;;;;;7.80;5.55;;;16.30;34.00;;;;;;5075874;28;20272;-85
2022/04/20 09:21:17;;;;;;;8.73;5.80;;;16.50;34.10;;;;;;5077302;28;20245;-86
2022/04/20 09:23:43;;;;;;;5.03;4.47;;;16.50;34.30;;;;;;5075719;28;20190;-86
2022/04/20 09:26:11;;;;;;;6.60;5.30;;;16.20;33.90;;;;;;5077360;28;20181;-84
2022/04/20 09:28:40;;;;;;;7.00;5.22;;;16.50;33.80;;;;;;5076736;28;20411;-85
2022/04/20 09:31:07;;;;;;;6.90;6.10;;;16.50;33.50;;;;;;5075377;28;20201;-86
2022/04/20 09:33:50;;;;;;;6.85;4.40;;;16.70;33.10;;;;;;5075843;28;20264;-87
2022/04/20 09:36:42;;;;;;;6.85;4.93;;;16.70;32.80;;;;;;5074384;28;20177;-89
2022/04/20 09:39:09;;;;;;;10.15;5.28;;;16.80;32.70;;;;;;5059539;28;20169;-86
2022/04/20 09:41:58;;;;;;;7.68;4.80;;;16.80;32.50;;;;;;5074836;28;20296;-86
2022/04/20 09:44:25;;;;;;;8.43;5.80;;;16.80;32.50;;;;;;5074504;28;20173;-86
2022/04/20 09:49:58;;;;;;;7.03;5.20;;;16.70;33.10;;;;;;5059468;28;20180;-87
2022/04/20 09:52:25;;;;;;;9.63;6.00;;;16.90;32.70;;;;;;5048287;28;20192;-86
2022/04/20 09:54:56;;;;;;;10.38;4.93;;;16.90;33.00;;;;;;5061163;28;20173;-86
2022/04/20 09:57:22;;;;;;;9.88;5.00;;;17.10;32.30;;;;;;5059299;28;20225;-86
2022/04/20 10:00:15;;;;;;;6.50;4.67;;;16.80;32.50;;;;;;5059762;28;20177;-87
2022/04/20 10:02:49;;;;;;;12.15;6.72;;;16.80;32.40;;;;;;5074916;28;20541;-86
2022/04/20 10:05:17;;;;;;;6.35;5.20;;;16.60;33.30;;;;;;5077815;28;20267;-88
2022/04/20 10:07:43;;;;;;;8.98;5.45;;;16.90;33.20;;;;;;5082761;28;20173;-89
2022/04/20 10:10:09;;;;;;;4.60;4.20;;;17.10;32.90;;;;;;5064769;28;20217;-86
2022/04/20 10:12:40;;;;;;;7.32;4.35;;;17.30;32.10;;;;;;5078612;28;20415;-86
2022/04/20 10:17:56;;;;;;;5.93;4.57;;;17.20;30.80;;;;;;5058210;28;20192;-87
2022/04/20 10:20:28;;;;;;;8.82;4.53;;;17.00;30.60;;;;;;5058919;28;20185;-86
2022/04/20 10:22:57;;;;;;;8.00;4.28;;;17.00;30.60;;;;;;5060151;28;20236;-87
2022/04/20 10:25:23;;;;;;;6.75;4.20;;;17.10;31.00;;;;;;5055032;28;20181;-87
2022/04/20 10:27:58;;;;;;;7.25;3.90;;;17.20;30.80;;;;;;5066131;28;20190;-88
2022/04/20 10:30:45;;;;;;;6.88;4.68;;;17.40;30.90;;;;;;5086040;28;20223;-87
2022/04/20 10:33:20;;;;;;;8.50;4.60;;;17.30;30.90;;;;;;5072851;28;20180;-85
2022/04/20 10:35:59;;;;;;;5.85;4.35;;;17.20;30.40;;;;;;5055805;28;20192;-87
2022/04/20 10:38:28;;;;;;;8.45;4.65;;;17.10;30.50;;;;;;5073971;28;20185;-86
2022/04/20 10:41:04;;;;;;;4.65;3.75;;;17.20;31.30;;;;;;5058192;28;20220;-88
2022/04/20 10:43:30;;;;;;;6.22;4.38;;;17.40;31.00;;;;;;5056019;28;20256;-88
2022/04/20 10:46:18;;;;;;;6.00;4.40;;;17.40;30.60;;;;;;5057202;28;20176;-88
2022/04/20 10:48:44;;;;;;;10.07;5.07;;;17.30;30.90;;;;;;5056912;28;20181;-87
2022/04/20 10:51:12;;;;;;;10.25;4.50;;;17.20;31.00;;;;;;5054887;28;20217;-87
2022/04/20 10:53:38;;;;;;;7.10;4.53;;;17.30;31.50;;;;;;5054655;28;20208;-87
2022/04/20 10:56:04;;;;;;;5.90;4.27;;;17.30;31.50;;;;;;5071636;28;20656;-87
2022/04/20 10:58:30;;;;;;;9.23;4.07;;;17.30;31.10;;;;;;5038300;28;20426;-87
2022/04/20 11:01:10;;;;;;;5.70;4.00;;;17.40;31.10;;;;;;5056004;28;20208;-87
2022/04/20 11:03:58;;;;;;;4.30;3.83;;;17.30;31.20;;;;;;5072397;28;20210;-87
2022/04/20 11:06:28;;;;;;;9.27;4.20;;;17.40;31.40;;;;;;5076560;28;20178;-87
2022/04/20 11:08:59;;;;;;;8.73;4.35;;;17.50;31.20;;;;;;5077437;28;20177;-88
2022/04/20 11:20:09;;;;;;;8.02;5.05;;;17.50;31.70;;;;;;5039285;28;20205;-87
2022/04/20 11:22:48;;;;;;;7.47;5.85;;;17.70;31.50;;;;;;5037885;28;20236;-87
2022/04/20 11:25:14;;;;;;;4.53;4.13;;;17.80;30.90;;;;;;5075225;28;20180;-87
2022/04/20 11:27:40;;;;;;;5.90;4.57;;;17.80;31.00;;;;;;5060055;28;20181;-87
2022/04/20 11:30:06;;;;;;;10.47;5.00;;;18.10;31.30;;;;;;5059130;28;20534;-87
2022/04/20 11:32:32;;;;;;;7.28;5.25;;;18.10;30.40;;;;;;5060866;28;20427;-87
2022/04/20 11:35:11;;;;;;;5.57;4.93;;;18.00;30.40;;;;;;5063029;28;20185;-85
2022/04/20 11:37:39;;;;;;;7.50;4.60;;;17.90;30.50;;;;;;5066601;28;20269;-88
2022/04/20 11:40:12;;;;;;;5.20;4.35;;;18.00;30.80;;;;;;5063749;28;20201;-87
2022/04/20 11:42:38;;;;;;;5.07;4.32;;;18.20;30.70;;;;;;5062486;28;20239;-87
2022/04/20 11:45:06;;;;;;;11.30;4.68;;;18.20;30.30;;;;;;5074704;28;20228;-88
2022/04/20 11:47:39;;;;;;;5.68;5.00;;;18.10;30.10;;;;;;5053640;28;20173;-88
2022/04/20 11:50:08;;;;;;;7.05;4.88;;;18.20;30.00;;;;;;5053847;28;20274;-89
2022/04/20 11:52:33;;;;;;;8.57;5.57;;;18.20;30.00;;;;;;5055608;28;20207;-87
2022/04/20 11:55:05;;;;;;;7.10;4.90;;;18.30;30.40;;;;;;5071131;28;20275;-87
2022/04/20 11:57:31;;;;;;;6.32;4.80;;;18.20;30.30;;;;;;5071827;28;20177;-87
2022/04/20 11:59:59;;;;;;;12.97;5.40;;;18.10;30.30;;;;;;5058243;28;20204;-88
2022/04/20 12:02:25;;;;;;;5.30;4.80;;;18.30;30.70;;;;;;5062617;28;20300;-88
2022/04/20 12:05:08;;;;;;;7.95;4.65;;;18.30;30.30;;;;;;5061676;28;20192;-88
2022/04/20 12:07:38;;;;;;;5.82;4.38;;;18.30;30.00;;;;;;5077818;28;20204;-86
2022/04/20 12:10:04;;;;;;;8.00;4.95;;;17.90;30.40;;;;;;5060641;28;20204;-86
2022/04/20 12:12:30;;;;;;;5.78;4.80;;;17.90;30.80;;;;;;5056637;28;20188;-88
2022/04/20 12:15:08;;;;;;;5.40;4.43;;;18.30;30.70;;;;;;5059243;28;20188;-89
2022/04/20 12:17:35;;;;;;;6.07;5.15;;;18.20;30.60;;;;;;5077052;28;20173;-88
2022/04/20 12:20:01;;;;;;;5.85;4.85;;;18.50;30.30;;;;;;5076533;28;20207;-88
2022/04/20 12:22:28;;;;;;;4.53;4.13;;;18.50;30.00;;;;;;5058873;28;20702;-88
2022/04/20 12:25:05;;;;;;;11.02;4.95;;;18.20;30.20;;;;;;5061753;28;20181;-89
2022/04/20 12:27:30;;;;;;;11.68;4.93;;;18.40;30.20;;;;;;5075023;28;20183;-89
2022/04/20 12:29:58;;;;;;;5.40;4.90;;;18.00;30.10;;;;;;5072972;28;20288;-87
2022/04/20 12:32:26;;;;;;;7.78;5.22;;;17.70;31.20;;;;;;5058166;28;20419;-88
2022/04/20 12:35:01;;;;;;;5.70;4.82;;;18.00;30.90;;;;;;5058379;28;20194;-87
2022/04/20 12:37:30;;;;;;;14.35;5.43;;;18.10;31.60;;;;;;5077313;28;20628;-87
2022/04/20 12:40:17;;;;;;;7.53;5.18;;;18.50;30.60;;;;;;5059797;28;20288;-87
2022/04/20 12:43:05;;;;;;;7.43;5.38;;;18.60;30.30;;;;;;5063584;28;20607;-87
2022/04/20 12:45:34;;;;;;;7.85;5.35;;;18.50;30.50;;;;;;5061406;28;20188;-88
2022/04/20 12:48:10;;;;;;;6.90;5.40;;;18.30;30.40;;;;;;5058302;28;20307;-89
2022/04/20 12:50:38;;;;;;;8.13;5.15;;;18.20;30.90;;;;;;5072392;28;20244;-88
2022/04/20 12:53:04;;;;;;;6.93;5.72;;;18.40;30.70;;;;;;5058591;28;20182;-88
2022/04/20 12:55:36;;;;;;;7.72;5.55;;;18.50;30.70;;;;;;5043383;28;20260;-88
2022/04/20 13:03:40;;;;;;;6.13;4.50;;;18.50;30.30;;;;;;5078424;28;20168;-89
2022/04/20 13:06:11;;;;;;;16.23;4.88;;;18.50;30.40;;;;;;5075448;28;20277;-88
2022/04/20 13:08:41;;;;;;;10.63;5.10;;;18.60;30.30;;;;;;5071841;28;20259;-87
2022/04/20 13:11:11;;;;;;;7.80;5.07;;;18.60;30.20;;;;;;5070747;28;20248;-87
2022/04/20 13:13:37;;;;;;;8.00;4.22;;;18.60;30.40;;;;;;5066194;28;20185;-89
2022/04/20 13:16:08;;;;;;;5.15;4.55;;;18.60;30.30;;;;;;5071263;28;20177;-87
2022/04/20 13:18:39;;;;;;;6.93;4.47;;;18.60;30.40;;;;;;5056056;28;20197;-88
2022/04/20 13:21:08;;;;;;;4.75;4.35;;;18.60;30.10;;;;;;5059293;28;20232;-88
2022/04/20 13:23:36;;;;;;;14.70;4.30;;;18.50;30.70;;;;;;5074369;28;20170;-88
2022/04/20 13:28:48;;;;;;;6.05;4.60;;;18.80;30.00;;;;;;5062435;28;20179;-88
2022/04/20 13:31:14;;;;;;;6.13;5.03;;;18.70;30.00;;;;;;5061799;28;20205;-88
2022/04/20 13:33:42;;;;;;;5.47;4.35;;;18.60;30.00;;;;;;5060706;28;20177;-88